LFMU

Béziers-Vias Airport

Airport
ICAO code
LFMU
IATA Code
BZR
Summary
ICAO Region
EUR
ICAO Territory
Location

, Languedoc-Roussillon

Serving
Beziers
Elevation
56 ft
Coordinates
43° 19' 25" N , 3° 21' 14" E
Metar
LFMU 142030Z AUTO 04004KT CAVOK 15/12 Q1021 TEMPO BKN008

Runways

Designator Length Width Surface Rops
10/28 1820 30 ASP No/No

Airport map

Aerial View

SKYbrary Partners:

Safety knowledge contributed by: